sensor_id;sensor_type;location;lat;lon;timestamp;temperature;humidity
7708;DHT22;3896;48.758;8.888;2023-03-01T00:02:17;-1.90;67.10
7708;DHT22;3896;48.758;8.888;2023-03-01T00:04:42;-1.90;67.30
7708;DHT22;3896;48.758;8.888;2023-03-01T00:07:08;-1.90;67.50
7708;DHT22;3896;48.758;8.888;2023-03-01T00:09:36;-1.90;68.60
7708;DHT22;3896;48.758;8.888;2023-03-01T00:12:02;-2.00;68.00
7708;DHT22;3896;48.758;8.888;2023-03-01T00:14:28;-2.00;68.00
7708;DHT22;3896;48.758;8.888;2023-03-01T00:16:53;-2.00;68.10
7708;DHT22;3896;48.758;8.888;2023-03-01T00:19:20;-2.10;68.10
7708;DHT22;3896;48.758;8.888;2023-03-01T00:21:45;-2.10;68.40
7708;DHT22;3896;48.758;8.888;2023-03-01T00:24:11;-2.10;68.60
7708;DHT22;3896;48.758;8.888;2023-03-01T00:26:37;-2.10;68.80
7708;DHT22;3896;48.758;8.888;2023-03-01T00:29:03;-2.20;68.80
7708;DHT22;3896;48.758;8.888;2023-03-01T00:31:31;-2.20;68.70
7708;DHT22;3896;48.758;8.888;2023-03-01T00:34:00;-2.20;68.50
7708;DHT22;3896;48.758;8.888;2023-03-01T00:36:28;-2.30;68.50
7708;DHT22;3896;48.758;8.888;2023-03-01T00:38:55;-2.30;68.50
7708;DHT22;3896;48.758;8.888;2023-03-01T00:41:21;-2.30;68.50
7708;DHT22;3896;48.758;8.888;2023-03-01T00:43:52;-2.30;68.50
7708;DHT22;3896;48.758;8.888;2023-03-01T00:46:21;-2.40;68.50
7708;DHT22;3896;48.758;8.888;2023-03-01T00:48:47;-2.40;68.60
7708;DHT22;3896;48.758;8.888;2023-03-01T00:51:18;-2.40;68.70
7708;DHT22;3896;48.758;8.888;2023-03-01T00:53:44;-2.40;68.70
7708;DHT22;3896;48.758;8.888;2023-03-01T00:56:11;-2.40;68.70
7708;DHT22;3896;48.758;8.888;2023-03-01T00:58:38;-2.50;69.00
7708;DHT22;3896;48.758;8.888;2023-03-01T01:01:16;-2.50;69.10
7708;DHT22;3896;48.758;8.888;2023-03-01T01:03:54;-2.60;69.00
7708;DHT22;3896;48.758;8.888;2023-03-01T01:06:26;-2.60;69.20
7708;DHT22;3896;48.758;8.888;2023-03-01T01:08:52;-2.60;69.00
7708;DHT22;3896;48.758;8.888;2023-03-01T01:11:19;-2.60;69.00
7708;DHT22;3896;48.758;8.888;2023-03-01T01:13:46;-2.60;69.00
7708;DHT22;3896;48.758;8.888;2023-03-01T01:16:13;-2.60;69.10
7708;DHT22;3896;48.758;8.888;2023-03-01T01:18:38;-2.70;69.10
7708;DHT22;3896;48.758;8.888;2023-03-01T01:21:10;-2.70;69.10
7708;DHT22;3896;48.758;8.888;2023-03-01T01:23:37;-2.80;69.30
7708;DHT22;3896;48.758;8.888;2023-03-01T01:26:07;-2.80;69.70
7708;DHT22;3896;48.758;8.888;2023-03-01T01:28:33;-2.80;69.80
7708;DHT22;3896;48.758;8.888;2023-03-01T01:30:59;-2.90;69.70
7708;DHT22;3896;48.758;8.888;2023-03-01T01:33:25;-2.90;69.50
7708;DHT22;3896;48.758;8.888;2023-03-01T01:35:51;-2.90;69.80
7708;DHT22;3896;48.758;8.888;2023-03-01T01:38:16;-2.90;69.90
7708;DHT22;3896;48.758;8.888;2023-03-01T01:40:49;-3.00;70.00
7708;DHT22;3896;48.758;8.888;2023-03-01T01:43:21;-3.00;70.30
7708;DHT22;3896;48.758;8.888;2023-03-01T01:45:47;-3.00;70.20
7708;DHT22;3896;48.758;8.888;2023-03-01T01:48:19;-3.00;70.30
7708;DHT22;3896;48.758;8.888;2023-03-01T01:50:45;-3.00;70.30
7708;DHT22;3896;48.758;8.888;2023-03-01T01:53:18;-3.10;70.10
7708;DHT22;3896;48.758;8.888;2023-03-01T01:55:51;-3.10;70.30
7708;DHT22;3896;48.758;8.888;2023-03-01T01:58:19;-3.10;70.30
7708;DHT22;3896;48.758;8.888;2023-03-01T02:00:46;-3.10;70.10
7708;DHT22;3896;48.758;8.888;2023-03-01T02:03:19;-3.10;70.70
7708;DHT22;3896;48.758;8.888;2023-03-01T02:05:58;-3.10;70.80
7708;DHT22;3896;48.758;8.888;2023-03-01T02:08:28;-3.20;70.50
7708;DHT22;3896;48.758;8.888;2023-03-01T02:10:56;-3.20;70.70
7708;DHT22;3896;48.758;8.888;2023-03-01T02:13:22;-3.20;70.40
7708;DHT22;3896;48.758;8.888;2023-03-01T02:15:49;-3.20;70.40
7708;DHT22;3896;48.758;8.888;2023-03-01T02:18:17;-3.20;70.60
7708;DHT22;3896;48.758;8.888;2023-03-01T02:23:24;-3.20;70.60
7708;DHT22;3896;48.758;8.888;2023-03-01T02:25:56;-3.20;70.70
7708;DHT22;3896;48.758;8.888;2023-03-01T02:28:38;-3.20;70.70
7708;DHT22;3896;48.758;8.888;2023-03-01T02:31:09;-3.20;70.90
7708;DHT22;3896;48.758;8.888;2023-03-01T02:33:54;-3.30;70.80
7708;DHT22;3896;48.758;8.888;2023-03-01T02:36:24;-3.30;71.10
7708;DHT22;3896;48.758;8.888;2023-03-01T02:38:53;-3.30;71.50
7708;DHT22;3896;48.758;8.888;2023-03-01T02:41:22;-3.30;71.50
7708;DHT22;3896;48.758;8.888;2023-03-01T02:43:49;-3.30;71.70
7708;DHT22;3896;48.758;8.888;2023-03-01T02:46:18;-3.30;72.10
7708;DHT22;3896;48.758;8.888;2023-03-01T02:48:47;-3.30;72.90
7708;DHT22;3896;48.758;8.888;2023-03-01T02:53:59;-3.30;73.50
7708;DHT22;3896;48.758;8.888;2023-03-01T02:56:29;-3.30;74.10
7708;DHT22;3896;48.758;8.888;2023-03-01T02:58:55;-3.20;74.40
7708;DHT22;3896;48.758;8.888;2023-03-01T03:01:26;-3.20;74.40
7708;DHT22;3896;48.758;8.888;2023-03-01T03:04:06;-3.20;74.30
7708;DHT22;3896;48.758;8.888;2023-03-01T03:06:33;-3.20;74.30
7708;DHT22;3896;48.758;8.888;2023-03-01T03:08:59;-3.10;74.60
7708;DHT22;3896;48.758;8.888;2023-03-01T03:11:25;-3.00;75.00
7708;DHT22;3896;48.758;8.888;2023-03-01T03:13:50;-3.10;74.60
7708;DHT22;3896;48.758;8.888;2023-03-01T03:16:18;-3.00;74.90
7708;DHT22;3896;48.758;8.888;2023-03-01T03:18:43;-3.00;74.90
7708;DHT22;3896;48.758;8.888;2023-03-01T03:21:10;-3.00;74.80
7708;DHT22;3896;48.758;8.888;2023-03-01T03:23:36;-2.90;75.30
7708;DHT22;3896;48.758;8.888;2023-03-01T03:26:03;-2.90;75.30
7708;DHT22;3896;48.758;8.888;2023-03-01T03:28:30;-2.90;75.70
7708;DHT22;3896;48.758;8.888;2023-03-01T03:30:56;-2.80;76.20
7708;DHT22;3896;48.758;8.888;2023-03-01T03:33:21;-2.80;75.80
7708;DHT22;3896;48.758;8.888;2023-03-01T03:35:48;-2.80;76.20
7708;DHT22;3896;48.758;8.888;2023-03-01T03:38:16;-2.70;76.70
7708;DHT22;3896;48.758;8.888;2023-03-01T03:41:11;-2.70;77.00
7708;DHT22;3896;48.758;8.888;2023-03-01T03:43:38;-2.70;76.60
7708;DHT22;3896;48.758;8.888;2023-03-01T03:46:05;-2.60;77.50
7708;DHT22;3896;48.758;8.888;2023-03-01T03:48:51;-2.60;77.60
7708;DHT22;3896;48.758;8.888;2023-03-01T03:51:18;-2.60;77.80
7708;DHT22;3896;48.758;8.888;2023-03-01T03:53:44;-2.50;78.60
7708;DHT22;3896;48.758;8.888;2023-03-01T03:56:10;-2.50;78.70
7708;DHT22;3896;48.758;8.888;2023-03-01T03:58:36;-2.40;79.10
7708;DHT22;3896;48.758;8.888;2023-03-01T04:01:02;-2.40;79.10
7708;DHT22;3896;48.758;8.888;2023-03-01T04:03:29;-2.40;79.00
7708;DHT22;3896;48.758;8.888;2023-03-01T04:05:58;-2.30;78.90
7708;DHT22;3896;48.758;8.888;2023-03-01T04:08:24;-2.30;78.90
7708;DHT22;3896;48.758;8.888;2023-03-01T04:10:52;-2.30;79.00
7708;DHT22;3896;48.758;8.888;2023-03-01T04:13:20;-2.30;78.90
7708;DHT22;3896;48.758;8.888;2023-03-01T04:15:50;-2.20;78.90
7708;DHT22;3896;48.758;8.888;2023-03-01T04:18:17;-2.20;79.60
7708;DHT22;3896;48.758;8.888;2023-03-01T04:20:43;-2.10;79.00
7708;DHT22;3896;48.758;8.888;2023-03-01T04:23:13;-2.10;79.20
7708;DHT22;3896;48.758;8.888;2023-03-01T04:25:52;-2.10;79.20
7708;DHT22;3896;48.758;8.888;2023-03-01T04:30:58;-2.00;79.40
7708;DHT22;3896;48.758;8.888;2023-03-01T04:33:30;-2.00;80.00
7708;DHT22;3896;48.758;8.888;2023-03-01T04:35:55;-1.90;80.10
7708;DHT22;3896;48.758;8.888;2023-03-01T04:38:22;-1.90;80.30
7708;DHT22;3896;48.758;8.888;2023-03-01T04:40:48;-1.90;80.70
7708;DHT22;3896;48.758;8.888;2023-03-01T04:43:14;-1.90;80.70
7708;DHT22;3896;48.758;8.888;2023-03-01T04:45:40;-1.80;81.30
7708;DHT22;3896;48.758;8.888;2023-03-01T04:48:05;-1.80;81.30
7708;DHT22;3896;48.758;8.888;2023-03-01T04:50:31;-1.70;82.00
7708;DHT22;3896;48.758;8.888;2023-03-01T04:52:57;-1.70;81.70
7708;DHT22;3896;48.758;8.888;2023-03-01T04:55:28;-1.70;81.80
7708;DHT22;3896;48.758;8.888;2023-03-01T04:57:54;-1.60;82.00
7708;DHT22;3896;48.758;8.888;2023-03-01T05:00:21;-1.60;82.10
7708;DHT22;3896;48.758;8.888;2023-03-01T05:02:50;-1.50;82.20
7708;DHT22;3896;48.758;8.888;2023-03-01T05:05:30;-1.50;82.20
7708;DHT22;3896;48.758;8.888;2023-03-01T05:07:58;-1.50;82.30
7708;DHT22;3896;48.758;8.888;2023-03-01T05:10:24;-1.40;82.70
7708;DHT22;3896;48.758;8.888;2023-03-01T05:12:50;-1.40;82.80
7708;DHT22;3896;48.758;8.888;2023-03-01T05:15:17;-1.40;82.90
7708;DHT22;3896;48.758;8.888;2023-03-01T05:17:43;-1.30;82.90
7708;DHT22;3896;48.758;8.888;2023-03-01T05:20:10;-1.30;82.60
7708;DHT22;3896;48.758;8.888;2023-03-01T05:22:36;-1.30;82.40
7708;DHT22;3896;48.758;8.888;2023-03-01T05:25:02;-1.20;83.20
7708;DHT22;3896;48.758;8.888;2023-03-01T05:27:28;-1.20;83.10
7708;DHT22;3896;48.758;8.888;2023-03-01T05:29:55;-1.10;82.90
7708;DHT22;3896;48.758;8.888;2023-03-01T05:32:20;-1.10;82.80
7708;DHT22;3896;48.758;8.888;2023-03-01T05:34:46;-1.10;82.80
7708;DHT22;3896;48.758;8.888;2023-03-01T05:37:12;-1.10;82.70
7708;DHT22;3896;48.758;8.888;2023-03-01T05:39:38;-1.00;82.60
7708;DHT22;3896;48.758;8.888;2023-03-01T05:42:04;-1.00;82.80
7708;DHT22;3896;48.758;8.888;2023-03-01T05:44:30;-1.00;82.70
7708;DHT22;3896;48.758;8.888;2023-03-01T05:46:56;-0.90;82.90
7708;DHT22;3896;48.758;8.888;2023-03-01T05:49:22;-0.90;82.70
7708;DHT22;3896;48.758;8.888;2023-03-01T05:51:50;-0.90;82.60
7708;DHT22;3896;48.758;8.888;2023-03-01T05:54:17;-0.90;82.70
7708;DHT22;3896;48.758;8.888;2023-03-01T05:56:43;-0.80;82.70
7708;DHT22;3896;48.758;8.888;2023-03-01T05:59:08;-0.80;82.80
7708;DHT22;3896;48.758;8.888;2023-03-01T06:01:35;-0.80;82.60
7708;DHT22;3896;48.758;8.888;2023-03-01T06:04:02;-0.80;82.60
7708;DHT22;3896;48.758;8.888;2023-03-01T06:06:28;-0.70;82.70
7708;DHT22;3896;48.758;8.888;2023-03-01T06:08:54;-0.70;83.50
7708;DHT22;3896;48.758;8.888;2023-03-01T06:11:20;-0.70;83.80
7708;DHT22;3896;48.758;8.888;2023-03-01T06:13:47;-0.70;84.10
7708;DHT22;3896;48.758;8.888;2023-03-01T06:16:13;-0.70;84.10
7708;DHT22;3896;48.758;8.888;2023-03-01T06:18:39;-0.60;83.80
7708;DHT22;3896;48.758;8.888;2023-03-01T06:21:06;-0.60;84.10
7708;DHT22;3896;48.758;8.888;2023-03-01T06:23:32;-0.60;83.90
7708;DHT22;3896;48.758;8.888;2023-03-01T06:25:57;-0.60;83.70
7708;DHT22;3896;48.758;8.888;2023-03-01T06:28:23;-0.50;83.70
7708;DHT22;3896;48.758;8.888;2023-03-01T06:30:50;-0.50;84.10
7708;DHT22;3896;48.758;8.888;2023-03-01T06:33:16;-0.50;84.40
7708;DHT22;3896;48.758;8.888;2023-03-01T06:35:44;-0.50;84.40
7708;DHT22;3896;48.758;8.888;2023-03-01T06:38:09;-0.40;84.20
7708;DHT22;3896;48.758;8.888;2023-03-01T06:40:35;-0.40;84.20
7708;DHT22;3896;48.758;8.888;2023-03-01T06:43:01;-0.40;84.10
7708;DHT22;3896;48.758;8.888;2023-03-01T06:45:27;-0.40;84.10
7708;DHT22;3896;48.758;8.888;2023-03-01T06:47:52;-0.40;84.60
7708;DHT22;3896;48.758;8.888;2023-03-01T06:50:18;-0.30;84.50
7708;DHT22;3896;48.758;8.888;2023-03-01T06:52:43;-0.30;84.80
7708;DHT22;3896;48.758;8.888;2023-03-01T06:55:11;-0.30;84.90
7708;DHT22;3896;48.758;8.888;2023-03-01T06:57:36;-0.20;85.00
7708;DHT22;3896;48.758;8.888;2023-03-01T07:00:04;-0.20;85.20
7708;DHT22;3896;48.758;8.888;2023-03-01T07:02:30;-0.20;85.30
7708;DHT22;3896;48.758;8.888;2023-03-01T07:04:55;-0.20;85.20
7708;DHT22;3896;48.758;8.888;2023-03-01T07:07:21;-0.20;85.30
7708;DHT22;3896;48.758;8.888;2023-03-01T07:09:48;-0.10;85.10
7708;DHT22;3896;48.758;8.888;2023-03-01T07:12:14;-0.10;85.20
7708;DHT22;3896;48.758;8.888;2023-03-01T07:14:40;-0.10;85.00
7708;DHT22;3896;48.758;8.888;2023-03-01T07:17:05;0.00;85.30
7708;DHT22;3896;48.758;8.888;2023-03-01T07:19:31;0.00;84.80
7708;DHT22;3896;48.758;8.888;2023-03-01T07:21:57;0.00;84.70
7708;DHT22;3896;48.758;8.888;2023-03-01T07:24:23;0.10;84.90
7708;DHT22;3896;48.758;8.888;2023-03-01T07:26:49;0.10;84.90
7708;DHT22;3896;48.758;8.888;2023-03-01T07:29:15;0.10;84.80
7708;DHT22;3896;48.758;8.888;2023-03-01T07:31:41;0.20;85.40
7708;DHT22;3896;48.758;8.888;2023-03-01T07:34:06;0.20;84.50
7708;DHT22;3896;48.758;8.888;2023-03-01T07:36:32;0.30;84.60
7708;DHT22;3896;48.758;8.888;2023-03-01T07:38:58;0.30;84.70
7708;DHT22;3896;48.758;8.888;2023-03-01T07:41:23;0.40;84.70
7708;DHT22;3896;48.758;8.888;2023-03-01T07:43:49;0.40;84.80
7708;DHT22;3896;48.758;8.888;2023-03-01T07:46:14;0.50;85.10
7708;DHT22;3896;48.758;8.888;2023-03-01T07:48:40;0.50;85.10
7708;DHT22;3896;48.758;8.888;2023-03-01T07:51:08;0.60;85.10
7708;DHT22;3896;48.758;8.888;2023-03-01T07:53:34;0.70;85.30
7708;DHT22;3896;48.758;8.888;2023-03-01T07:56:04;0.70;85.00
7708;DHT22;3896;48.758;8.888;2023-03-01T07:58:30;0.70;84.80
7708;DHT22;3896;48.758;8.888;2023-03-01T08:00:55;0.80;84.70
7708;DHT22;3896;48.758;8.888;2023-03-01T08:03:21;0.80;84.50
7708;DHT22;3896;48.758;8.888;2023-03-01T08:05:46;0.90;84.30
7708;DHT22;3896;48.758;8.888;2023-03-01T08:08:12;1.00;84.10
7708;DHT22;3896;48.758;8.888;2023-03-01T08:10:37;1.00;83.80
7708;DHT22;3896;48.758;8.888;2023-03-01T08:13:04;1.10;83.70
7708;DHT22;3896;48.758;8.888;2023-03-01T08:15:30;1.10;83.60
7708;DHT22;3896;48.758;8.888;2023-03-01T08:17:55;1.20;83.60
7708;DHT22;3896;48.758;8.888;2023-03-01T08:20:21;1.30;83.60
7708;DHT22;3896;48.758;8.888;2023-03-01T08:22:46;1.30;83.40
7708;DHT22;3896;48.758;8.888;2023-03-01T08:25:12;1.40;83.30
7708;DHT22;3896;48.758;8.888;2023-03-01T08:27:37;1.50;83.20
7708;DHT22;3896;48.758;8.888;2023-03-01T08:30:03;1.60;83.10
7708;DHT22;3896;48.758;8.888;2023-03-01T08:32:29;1.60;82.80
7708;DHT22;3896;48.758;8.888;2023-03-01T08:34:54;1.70;82.70
7708;DHT22;3896;48.758;8.888;2023-03-01T08:37:20;1.80;82.30
7708;DHT22;3896;48.758;8.888;2023-03-01T08:39:46;1.90;82.00
7708;DHT22;3896;48.758;8.888;2023-03-01T08:42:11;2.00;82.10
7708;DHT22;3896;48.758;8.888;2023-03-01T08:44:37;2.10;81.90
7708;DHT22;3896;48.758;8.888;2023-03-01T08:47:02;2.10;81.50
7708;DHT22;3896;48.758;8.888;2023-03-01T08:49:30;2.20;81.20
7708;DHT22;3896;48.758;8.888;2023-03-01T08:51:57;2.30;80.90
7708;DHT22;3896;48.758;8.888;2023-03-01T08:54:23;2.40;80.80
7708;DHT22;3896;48.758;8.888;2023-03-01T08:56:49;2.50;80.50
7708;DHT22;3896;48.758;8.888;2023-03-01T08:59:17;2.60;80.10
7708;DHT22;3896;48.758;8.888;2023-03-01T09:01:42;2.70;79.90
7708;DHT22;3896;48.758;8.888;2023-03-01T09:04:10;2.80;79.60
7708;DHT22;3896;48.758;8.888;2023-03-01T09:06:36;2.90;79.10
7708;DHT22;3896;48.758;8.888;2023-03-01T09:09:03;3.00;78.90
7708;DHT22;3896;48.758;8.888;2023-03-01T09:11:29;3.10;78.70
7708;DHT22;3896;48.758;8.888;2023-03-01T09:13:55;3.20;78.20
7708;DHT22;3896;48.758;8.888;2023-03-01T09:16:21;3.30;77.90
7708;DHT22;3896;48.758;8.888;2023-03-01T09:18:52;3.40;77.60
7708;DHT22;3896;48.758;8.888;2023-03-01T09:21:20;3.50;77.40
7708;DHT22;3896;48.758;8.888;2023-03-01T09:23:47;3.60;76.90
7708;DHT22;3896;48.758;8.888;2023-03-01T09:26:18;3.70;76.60
7708;DHT22;3896;48.758;8.888;2023-03-01T09:28:45;3.80;76.00
7708;DHT22;3896;48.758;8.888;2023-03-01T09:31:11;3.90;75.70
7708;DHT22;3896;48.758;8.888;2023-03-01T09:33:38;4.00;75.20
7708;DHT22;3896;48.758;8.888;2023-03-01T09:36:07;4.10;74.80
7708;DHT22;3896;48.758;8.888;2023-03-01T09:38:34;4.20;74.40
7708;DHT22;3896;48.758;8.888;2023-03-01T09:41:00;4.30;73.90
7708;DHT22;3896;48.758;8.888;2023-03-01T09:43:45;4.40;73.20
7708;DHT22;3896;48.758;8.888;2023-03-01T09:46:14;4.50;72.70
7708;DHT22;3896;48.758;8.888;2023-03-01T09:49:05;4.70;72.20
7708;DHT22;3896;48.758;8.888;2023-03-01T09:51:35;4.80;71.70
7708;DHT22;3896;48.758;8.888;2023-03-01T09:54:02;4.90;70.90
7708;DHT22;3896;48.758;8.888;2023-03-01T09:56:44;5.00;70.40
7708;DHT22;3896;48.758;8.888;2023-03-01T09:59:30;5.00;70.40
7708;DHT22;3896;48.758;8.888;2023-03-01T10:02:24;5.10;70.00
7708;DHT22;3896;48.758;8.888;2023-03-01T10:05:09;5.30;70.00
7708;DHT22;3896;48.758;8.888;2023-03-01T10:07:54;5.40;69.80
7708;DHT22;3896;48.758;8.888;2023-03-01T10:10:35;5.60;69.40
7708;DHT22;3896;48.758;8.888;2023-03-01T10:13:25;5.70;68.90
7708;DHT22;3896;48.758;8.888;2023-03-01T10:16:23;5.80;68.70
7708;DHT22;3896;48.758;8.888;2023-03-01T10:18:58;5.90;67.70
7708;DHT22;3896;48.758;8.888;2023-03-01T10:21:27;6.10;67.30
7708;DHT22;3896;48.758;8.888;2023-03-01T10:23:53;6.20;66.30
7708;DHT22;3896;48.758;8.888;2023-03-01T10:26:40;6.30;66.10
7708;DHT22;3896;48.758;8.888;2023-03-01T10:29:11;6.40;65.50
7708;DHT22;3896;48.758;8.888;2023-03-01T10:31:44;6.50;65.30
7708;DHT22;3896;48.758;8.888;2023-03-01T10:34:21;6.70;65.30
7708;DHT22;3896;48.758;8.888;2023-03-01T10:36:50;6.80;64.70
7708;DHT22;3896;48.758;8.888;2023-03-01T10:39:22;7.00;64.30
7708;DHT22;3896;48.758;8.888;2023-03-01T10:41:55;7.10;63.70
7708;DHT22;3896;48.758;8.888;2023-03-01T10:47:29;7.30;62.50
7708;DHT22;3896;48.758;8.888;2023-03-01T10:50:04;7.40;62.10
7708;DHT22;3896;48.758;8.888;2023-03-01T10:52:40;7.50;61.40
7708;DHT22;3896;48.758;8.888;2023-03-01T10:55:39;7.60;60.70
7708;DHT22;3896;48.758;8.888;2023-03-01T11:01:00;8.00;60.00
7708;DHT22;3896;48.758;8.888;2023-03-01T11:03:33;8.10;59.50
7708;DHT22;3896;48.758;8.888;2023-03-01T11:06:01;8.20;59.30
7708;DHT22;3896;48.758;8.888;2023-03-01T11:08:47;8.30;59.20
7708;DHT22;3896;48.758;8.888;2023-03-01T11:11:24;8.40;58.80
7708;DHT22;3896;48.758;8.888;2023-03-01T11:13:54;8.60;58.20
7708;DHT22;3896;48.758;8.888;2023-03-01T11:16:37;8.70;57.90
7708;DHT22;3896;48.758;8.888;2023-03-01T11:21:59;8.80;57.20
7708;DHT22;3896;48.758;8.888;2023-03-01T11:24:30;8.90;56.90
7708;DHT22;3896;48.758;8.888;2023-03-01T11:27:02;9.00;56.70
7708;DHT22;3896;48.758;8.888;2023-03-01T11:29:37;9.10;56.40
7708;DHT22;3896;48.758;8.888;2023-03-01T11:32:07;9.20;56.20
7708;DHT22;3896;48.758;8.888;2023-03-01T11:34:43;9.30;56.00
7708;DHT22;3896;48.758;8.888;2023-03-01T11:37:26;9.40;55.60
7708;DHT22;3896;48.758;8.888;2023-03-01T11:39:58;9.50;55.30
7708;DHT22;3896;48.758;8.888;2023-03-01T11:44:59;9.70;55.30
7708;DHT22;3896;48.758;8.888;2023-03-01T11:50:28;9.90;54.60
7708;DHT22;3896;48.758;8.888;2023-03-01T11:53:18;10.00;53.60
7708;DHT22;3896;48.758;8.888;2023-03-01T11:58:45;10.30;54.00
7708;DHT22;3896;48.758;8.888;2023-03-01T12:01:35;10.40;53.10
7708;DHT22;3896;48.758;8.888;2023-03-01T12:06:59;10.70;52.30
7708;DHT22;3896;48.758;8.888;2023-03-01T12:09:51;10.80;51.70
7708;DHT22;3896;48.758;8.888;2023-03-01T12:12:43;10.90;51.60
7708;DHT22;3896;48.758;8.888;2023-03-01T12:18:36;11.20;51.20
7708;DHT22;3896;48.758;8.888;2023-03-01T12:40:53;12.30;48.80
7708;DHT22;3896;48.758;8.888;2023-03-01T12:43:43;12.50;48.50
7708;DHT22;3896;48.758;8.888;2023-03-01T12:46:34;12.60;48.10
7708;DHT22;3896;48.758;8.888;2023-03-01T12:49:14;12.80;47.80
7708;DHT22;3896;48.758;8.888;2023-03-01T12:51:50;13.00;47.30
7708;DHT22;3896;48.758;8.888;2023-03-01T12:54:26;13.20;47.00
7708;DHT22;3896;48.758;8.888;2023-03-01T12:56:52;13.30;46.40
7708;DHT22;3896;48.758;8.888;2023-03-01T12:59:37;13.40;46.40
7708;DHT22;3896;48.758;8.888;2023-03-01T13:20:46;14.50;44.60
7708;DHT22;3896;48.758;8.888;2023-03-01T13:26:04;14.70;44.00
7708;DHT22;3896;48.758;8.888;2023-03-01T13:30:58;15.10;43.20
7708;DHT22;3896;48.758;8.888;2023-03-01T13:33:41;15.10;42.60
7708;DHT22;3896;48.758;8.888;2023-03-01T13:36:08;15.20;42.50
7708;DHT22;3896;48.758;8.888;2023-03-01T13:38:38;15.30;42.30
7708;DHT22;3896;48.758;8.888;2023-03-01T13:41:05;15.40;42.10
7708;DHT22;3896;48.758;8.888;2023-03-01T13:43:39;15.60;42.10
7708;DHT22;3896;48.758;8.888;2023-03-01T13:46:21;15.70;42.30
7708;DHT22;3896;48.758;8.888;2023-03-01T13:48:51;15.80;41.40
7708;DHT22;3896;48.758;8.888;2023-03-01T13:51:24;15.80;41.20
7708;DHT22;3896;48.758;8.888;2023-03-01T13:53:52;16.00;41.20
7708;DHT22;3896;48.758;8.888;2023-03-01T13:56:29;16.10;41.20
7708;DHT22;3896;48.758;8.888;2023-03-01T13:59:02;16.20;40.70
7708;DHT22;3896;48.758;8.888;2023-03-01T14:01:34;16.30;40.50
7708;DHT22;3896;48.758;8.888;2023-03-01T14:04:01;16.40;40.50
7708;DHT22;3896;48.758;8.888;2023-03-01T14:06:32;16.50;40.10
7708;DHT22;3896;48.758;8.888;2023-03-01T14:09:18;16.60;40.10
7708;DHT22;3896;48.758;8.888;2023-03-01T14:12:20;16.70;40.20
7708;DHT22;3896;48.758;8.888;2023-03-01T14:16:01;16.70;39.60
7708;DHT22;3896;48.758;8.888;2023-03-01T14:18:25;16.80;39.50
7708;DHT22;3896;48.758;8.888;2023-03-01T14:20:54;16.80;39.70
7708;DHT22;3896;48.758;8.888;2023-03-01T14:23:22;16.90;39.40
7708;DHT22;3896;48.758;8.888;2023-03-01T14:25:56;17.00;39.10
7708;DHT22;3896;48.758;8.888;2023-03-01T14:28:24;17.10;39.00
7708;DHT22;3896;48.758;8.888;2023-03-01T14:30:57;17.10;38.80
7708;DHT22;3896;48.758;8.888;2023-03-01T14:35:54;17.10;39.10
7708;DHT22;3896;48.758;8.888;2023-03-01T14:38:21;17.20;39.20
7708;DHT22;3896;48.758;8.888;2023-03-01T14:40:51;17.30;38.80
7708;DHT22;3896;48.758;8.888;2023-03-01T14:43:21;17.30;38.30
7708;DHT22;3896;48.758;8.888;2023-03-01T14:45:49;17.40;38.60
7708;DHT22;3896;48.758;8.888;2023-03-01T14:48:15;17.40;38.40
7708;DHT22;3896;48.758;8.888;2023-03-01T14:50:42;17.50;37.90
7708;DHT22;3896;48.758;8.888;2023-03-01T14:53:17;17.50;38.20
7708;DHT22;3896;48.758;8.888;2023-03-01T14:55:46;17.50;37.40
7708;DHT22;3896;48.758;8.888;2023-03-01T14:58:15;17.40;37.50
7708;DHT22;3896;48.758;8.888;2023-03-01T15:00:50;17.40;37.40
7708;DHT22;3896;48.758;8.888;2023-03-01T15:03:35;17.30;37.40
7708;DHT22;3896;48.758;8.888;2023-03-01T15:06:05;17.20;37.80
7708;DHT22;3896;48.758;8.888;2023-03-01T15:08:32;17.10;37.50
7708;DHT22;3896;48.758;8.888;2023-03-01T15:13:26;17.00;38.20
7708;DHT22;3896;48.758;8.888;2023-03-01T15:16:01;16.90;37.90
7708;DHT22;3896;48.758;8.888;2023-03-01T15:18:28;16.80;38.00
7708;DHT22;3896;48.758;8.888;2023-03-01T15:20:55;16.70;38.00
7708;DHT22;3896;48.758;8.888;2023-03-01T15:23:30;16.60;38.20
7708;DHT22;3896;48.758;8.888;2023-03-01T15:25:56;16.50;38.00
7708;DHT22;3896;48.758;8.888;2023-03-01T15:28:30;16.40;38.20
7708;DHT22;3896;48.758;8.888;2023-03-01T15:31:21;16.20;38.00
7708;DHT22;3896;48.758;8.888;2023-03-01T15:33:47;16.10;38.30
7708;DHT22;3896;48.758;8.888;2023-03-01T15:39:00;15.70;38.50
7708;DHT22;3896;48.758;8.888;2023-03-01T15:41:32;15.60;39.00
7708;DHT22;3896;48.758;8.888;2023-03-01T15:43:59;15.40;38.80
7708;DHT22;3896;48.758;8.888;2023-03-01T15:48:59;15.10;39.40
7708;DHT22;3896;48.758;8.888;2023-03-01T15:51:37;15.00;39.40
7708;DHT22;3896;48.758;8.888;2023-03-01T15:54:17;14.80;39.60
7708;DHT22;3896;48.758;8.888;2023-03-01T15:56:44;14.70;39.90
7708;DHT22;3896;48.758;8.888;2023-03-01T15:59:11;14.60;40.10
7708;DHT22;3896;48.758;8.888;2023-03-01T16:01:40;14.50;40.40
7708;DHT22;3896;48.758;8.888;2023-03-01T16:04:06;14.40;40.50
7708;DHT22;3896;48.758;8.888;2023-03-01T16:06:32;14.30;40.30
7708;DHT22;3896;48.758;8.888;2023-03-01T16:08:57;14.10;40.40
7708;DHT22;3896;48.758;8.888;2023-03-01T16:11:23;14.00;40.80
7708;DHT22;3896;48.758;8.888;2023-03-01T16:13:49;13.90;41.10
7708;DHT22;3896;48.758;8.888;2023-03-01T16:16:16;13.70;41.00
7708;DHT22;3896;48.758;8.888;2023-03-01T16:18:44;13.60;41.10
7708;DHT22;3896;48.758;8.888;2023-03-01T16:21:28;13.50;41.90
7708;DHT22;3896;48.758;8.888;2023-03-01T16:23:53;13.40;41.30
7708;DHT22;3896;48.758;8.888;2023-03-01T16:26:19;13.30;41.40
7708;DHT22;3896;48.758;8.888;2023-03-01T16:28:45;13.10;41.70
7708;DHT22;3896;48.758;8.888;2023-03-01T16:31:11;13.00;41.70
7708;DHT22;3896;48.758;8.888;2023-03-01T16:33:39;12.90;42.10
7708;DHT22;3896;48.758;8.888;2023-03-01T16:36:09;12.70;41.90
7708;DHT22;3896;48.758;8.888;2023-03-01T16:38:36;12.50;42.00
7708;DHT22;3896;48.758;8.888;2023-03-01T16:41:02;12.40;42.20
7708;DHT22;3896;48.758;8.888;2023-03-01T16:43:28;12.30;42.40
7708;DHT22;3896;48.758;8.888;2023-03-01T16:45:54;12.20;42.80
7708;DHT22;3896;48.758;8.888;2023-03-01T16:48:19;12.00;42.80
7708;DHT22;3896;48.758;8.888;2023-03-01T16:50:55;11.90;43.10
7708;DHT22;3896;48.758;8.888;2023-03-01T16:53:21;11.70;43.10
7708;DHT22;3896;48.758;8.888;2023-03-01T16:55:53;11.60;43.60
7708;DHT22;3896;48.758;8.888;2023-03-01T16:58:19;11.50;43.80
7708;DHT22;3896;48.758;8.888;2023-03-01T17:00:44;11.40;43.80
7708;DHT22;3896;48.758;8.888;2023-03-01T17:03:10;11.20;44.40
7708;DHT22;3896;48.758;8.888;2023-03-01T17:05:35;11.10;44.00
7708;DHT22;3896;48.758;8.888;2023-03-01T17:08:01;11.00;44.20
7708;DHT22;3896;48.758;8.888;2023-03-01T17:10:26;10.90;44.30
7708;DHT22;3896;48.758;8.888;2023-03-01T17:12:52;10.80;44.40
7708;DHT22;3896;48.758;8.888;2023-03-01T17:15:17;10.70;44.80
7708;DHT22;3896;48.758;8.888;2023-03-01T17:17:43;10.50;44.60
7708;DHT22;3896;48.758;8.888;2023-03-01T17:20:09;10.40;44.90
7708;DHT22;3896;48.758;8.888;2023-03-01T17:22:35;10.20;45.00
7708;DHT22;3896;48.758;8.888;2023-03-01T17:25:00;10.10;45.10
7708;DHT22;3896;48.758;8.888;2023-03-01T17:27:26;10.00;45.30
7708;DHT22;3896;48.758;8.888;2023-03-01T17:29:52;9.90;46.30
7708;DHT22;3896;48.758;8.888;2023-03-01T17:32:17;9.80;46.30
7708;DHT22;3896;48.758;8.888;2023-03-01T17:34:43;9.60;46.40
7708;DHT22;3896;48.758;8.888;2023-03-01T17:37:10;9.50;46.50
7708;DHT22;3896;48.758;8.888;2023-03-01T17:39:36;9.40;46.70
7708;DHT22;3896;48.758;8.888;2023-03-01T17:42:03;9.20;46.80
7708;DHT22;3896;48.758;8.888;2023-03-01T17:44:29;9.10;47.10
7708;DHT22;3896;48.758;8.888;2023-03-01T17:46:55;9.00;47.30
7708;DHT22;3896;48.758;8.888;2023-03-01T17:49:20;8.80;47.40